sensor_id;sensor_type;location;lat;lon;timestamp;noise_LAeq;noise_LA_min;noise_LA_max;noise_LA01;noise_LA95
64077;Laerm;51039;49.696;10.808;2022-07-31T00:01:04;29.14;27.68;30.32;;
64077;Laerm;51039;49.696;10.808;2022-07-31T00:03:29;29.14;28.05;30.24;;
64077;Laerm;51039;49.696;10.808;2022-07-31T00:05:54;29.13;27.82;30.36;;
64077;Laerm;51039;49.696;10.808;2022-07-31T00:08:20;29.11;27.91;30.32;;
64077;Laerm;51039;49.696;10.808;2022-07-31T00:10:45;29.10;27.95;30.42;;
64077;Laerm;51039;49.696;10.808;2022-07-31T00:13:10;29.11;27.95;30.19;;
64077;Laerm;51039;49.696;10.808;2022-07-31T00:15:36;29.09;27.80;30.11;;
64077;Laerm;51039;49.696;10.808;2022-07-31T00:18:01;29.07;27.87;30.27;;
64077;Laerm;51039;49.696;10.808;2022-07-31T00:20:26;29.05;27.94;30.14;;
64077;Laerm;51039;49.696;10.808;2022-07-31T00:22:51;29.05;27.93;30.30;;
64077;Laerm;51039;49.696;10.808;2022-07-31T00:25:18;29.03;27.95;30.03;;
64077;Laerm;51039;49.696;10.808;2022-07-31T00:27:44;29.02;27.69;30.10;;
64077;Laerm;51039;49.696;10.808;2022-07-31T00:30:10;29.00;27.87;30.28;;
64077;Laerm;51039;49.696;10.808;2022-07-31T00:32:40;29.00;27.84;30.07;;
64077;Laerm;51039;49.696;10.808;2022-07-31T00:35:06;29.00;27.57;30.09;;
64077;Laerm;51039;49.696;10.808;2022-07-31T00:37:34;28.99;27.58;30.06;;
64077;Laerm;51039;49.696;10.808;2022-07-31T00:39:59;29.00;27.93;30.19;;
64077;Laerm;51039;49.696;10.808;2022-07-31T00:42:25;28.99;27.71;30.02;;
64077;Laerm;51039;49.696;10.808;2022-07-31T00:44:51;29.00;27.73;30.23;;
64077;Laerm;51039;49.696;10.808;2022-07-31T00:47:17;28.97;27.47;30.09;;
64077;Laerm;51039;49.696;10.808;2022-07-31T00:49:44;28.98;27.67;30.06;;
64077;Laerm;51039;49.696;10.808;2022-07-31T00:52:09;28.95;27.75;30.07;;
64077;Laerm;51039;49.696;10.808;2022-07-31T00:54:35;28.95;27.75;30.05;;
64077;Laerm;51039;49.696;10.808;2022-07-31T00:57:00;28.93;27.85;30.03;;
64077;Laerm;51039;49.696;10.808;2022-07-31T00:59:27;28.94;27.91;29.96;;
64077;Laerm;51039;49.696;10.808;2022-07-31T01:01:53;28.93;27.49;30.05;;
64077;Laerm;51039;49.696;10.808;2022-07-31T01:04:19;28.92;27.75;30.13;;
64077;Laerm;51039;49.696;10.808;2022-07-31T01:06:44;28.92;27.91;29.96;;
64077;Laerm;51039;49.696;10.808;2022-07-31T01:09:10;28.91;27.77;29.91;;
64077;Laerm;51039;49.696;10.808;2022-07-31T01:14:33;28.90;27.77;30.04;;
64077;Laerm;51039;49.696;10.808;2022-07-31T01:17:00;28.90;27.87;32.97;;
64077;Laerm;51039;49.696;10.808;2022-07-31T01:19:36;28.90;27.54;29.93;;
64077;Laerm;51039;49.696;10.808;2022-07-31T01:25:06;28.89;27.74;30.21;;
64077;Laerm;51039;49.696;10.808;2022-07-31T01:30:09;28.88;27.78;30.05;;
64077;Laerm;51039;49.696;10.808;2022-07-31T01:32:37;28.87;27.75;30.01;;
64077;Laerm;51039;49.696;10.808;2022-07-31T01:35:08;28.87;27.72;29.91;;
64077;Laerm;51039;49.696;10.808;2022-07-31T01:37:39;28.86;27.90;29.92;;
64077;Laerm;51039;49.696;10.808;2022-07-31T01:40:14;28.85;27.61;29.92;;
64077;Laerm;51039;49.696;10.808;2022-07-31T01:42:43;28.84;27.76;30.00;;
64077;Laerm;51039;49.696;10.808;2022-07-31T01:45:11;28.83;27.79;29.88;;
64077;Laerm;51039;49.696;10.808;2022-07-31T01:47:39;28.83;27.76;29.84;;
64077;Laerm;51039;49.696;10.808;2022-07-31T01:50:07;28.83;27.42;29.92;;
64077;Laerm;51039;49.696;10.808;2022-07-31T01:52:35;28.82;27.59;29.92;;
64077;Laerm;51039;49.696;10.808;2022-07-31T01:55:01;28.81;27.56;29.99;;
64077;Laerm;51039;49.696;10.808;2022-07-31T01:57:29;28.81;27.78;29.99;;
64077;Laerm;51039;49.696;10.808;2022-07-31T02:00:00;28.81;27.63;29.85;;
64077;Laerm;51039;49.696;10.808;2022-07-31T02:02:27;28.80;27.69;30.17;;
64077;Laerm;51039;49.696;10.808;2022-07-31T02:04:54;28.79;27.65;29.76;;
64077;Laerm;51039;49.696;10.808;2022-07-31T02:07:21;28.79;27.62;30.03;;
64077;Laerm;51039;49.696;10.808;2022-07-31T02:09:48;28.80;27.64;29.83;;
64077;Laerm;51039;49.696;10.808;2022-07-31T02:12:15;28.79;27.54;29.99;;
64077;Laerm;51039;49.696;10.808;2022-07-31T02:14:42;28.81;27.60;29.91;;
64077;Laerm;51039;49.696;10.808;2022-07-31T02:17:08;28.80;27.72;29.88;;
64077;Laerm;51039;49.696;10.808;2022-07-31T02:19:38;28.79;27.70;29.89;;
64077;Laerm;51039;49.696;10.808;2022-07-31T02:22:04;28.79;27.67;29.85;;
64077;Laerm;51039;49.696;10.808;2022-07-31T02:24:31;28.79;27.50;29.93;;
64077;Laerm;51039;49.696;10.808;2022-07-31T02:26:56;28.78;27.64;30.28;;
64077;Laerm;51039;49.696;10.808;2022-07-31T02:29:23;28.75;27.61;29.78;;
64077;Laerm;51039;49.696;10.808;2022-07-31T02:31:50;28.74;27.64;29.85;;
64077;Laerm;51039;49.696;10.808;2022-07-31T02:34:17;28.72;27.55;29.97;;
64077;Laerm;51039;49.696;10.808;2022-07-31T02:36:44;28.69;27.51;29.85;;
64077;Laerm;51039;49.696;10.808;2022-07-31T02:39:10;28.70;27.56;29.79;;
64077;Laerm;51039;49.696;10.808;2022-07-31T02:41:38;28.68;27.28;29.83;;
64077;Laerm;51039;49.696;10.808;2022-07-31T02:44:04;28.67;27.36;29.82;;
64077;Laerm;51039;49.696;10.808;2022-07-31T02:46:30;28.66;27.34;29.73;;
64077;Laerm;51039;49.696;10.808;2022-07-31T02:48:56;28.65;27.48;29.81;;
64077;Laerm;51039;49.696;10.808;2022-07-31T02:51:22;28.64;27.48;29.71;;
64077;Laerm;51039;49.696;10.808;2022-07-31T02:53:48;28.63;27.49;29.88;;
64077;Laerm;51039;49.696;10.808;2022-07-31T02:56:15;28.62;27.57;29.70;;
64077;Laerm;51039;49.696;10.808;2022-07-31T02:58:40;28.62;27.39;29.68;;
64077;Laerm;51039;49.696;10.808;2022-07-31T03:01:06;28.62;27.28;29.67;;
64077;Laerm;51039;49.696;10.808;2022-07-31T03:03:32;28.61;27.45;29.73;;
64077;Laerm;51039;49.696;10.808;2022-07-31T03:05:57;28.61;27.44;29.66;;
64077;Laerm;51039;49.696;10.808;2022-07-31T03:08:23;28.63;27.55;29.85;;
64077;Laerm;51039;49.696;10.808;2022-07-31T03:10:48;28.62;27.40;29.87;;
64077;Laerm;51039;49.696;10.808;2022-07-31T03:13:14;28.62;27.52;29.65;;
64077;Laerm;51039;49.696;10.808;2022-07-31T03:15:42;28.61;27.21;29.83;;
64077;Laerm;51039;49.696;10.808;2022-07-31T03:18:08;28.61;27.20;29.87;;
64077;Laerm;51039;49.696;10.808;2022-07-31T03:20:36;28.61;27.54;29.66;;
64077;Laerm;51039;49.696;10.808;2022-07-31T03:23:03;28.61;27.43;29.67;;
64077;Laerm;51039;49.696;10.808;2022-07-31T03:25:31;28.60;27.29;29.62;;
64077;Laerm;51039;49.696;10.808;2022-07-31T03:27:57;28.62;27.49;29.84;;
64077;Laerm;51039;49.696;10.808;2022-07-31T03:30:24;28.60;27.25;29.63;;
64077;Laerm;51039;49.696;10.808;2022-07-31T03:32:51;28.60;27.50;29.78;;
64077;Laerm;51039;49.696;10.808;2022-07-31T03:35:17;28.61;27.24;29.74;;
64077;Laerm;51039;49.696;10.808;2022-07-31T03:37:42;28.62;27.47;30.12;;
64077;Laerm;51039;49.696;10.808;2022-07-31T03:40:09;28.60;27.50;29.78;;
64077;Laerm;51039;49.696;10.808;2022-07-31T03:42:34;28.59;27.46;29.70;;
64077;Laerm;51039;49.696;10.808;2022-07-31T03:45:00;28.60;27.23;29.81;;
64077;Laerm;51039;49.696;10.808;2022-07-31T03:47:26;28.60;27.42;29.68;;
64077;Laerm;51039;49.696;10.808;2022-07-31T03:49:52;28.59;27.39;29.58;;
64077;Laerm;51039;49.696;10.808;2022-07-31T03:52:18;28.58;27.29;29.67;;
64077;Laerm;51039;49.696;10.808;2022-07-31T03:54:43;28.58;27.30;29.75;;
64077;Laerm;51039;49.696;10.808;2022-07-31T03:57:09;28.58;27.38;29.66;;
64077;Laerm;51039;49.696;10.808;2022-07-31T03:59:35;28.57;27.42;29.54;;
64077;Laerm;51039;49.696;10.808;2022-07-31T04:02:00;28.57;27.08;29.63;;
64077;Laerm;51039;49.696;10.808;2022-07-31T04:04:26;28.54;27.41;29.67;;
64077;Laerm;51039;49.696;10.808;2022-07-31T04:06:51;28.54;27.32;29.76;;
64077;Laerm;51039;49.696;10.808;2022-07-31T04:09:17;28.54;27.44;29.83;;
64077;Laerm;51039;49.696;10.808;2022-07-31T04:11:44;28.52;27.42;29.65;;
64077;Laerm;51039;49.696;10.808;2022-07-31T04:14:09;28.51;27.15;29.57;;
64077;Laerm;51039;49.696;10.808;2022-07-31T04:16:34;28.52;27.28;29.70;;
64077;Laerm;51039;49.696;10.808;2022-07-31T04:19:00;28.52;27.40;29.62;;
64077;Laerm;51039;49.696;10.808;2022-07-31T04:21:25;28.52;27.43;29.56;;
64077;Laerm;51039;49.696;10.808;2022-07-31T04:23:50;28.52;27.42;29.75;;
64077;Laerm;51039;49.696;10.808;2022-07-31T04:26:15;28.52;27.44;29.66;;
64077;Laerm;51039;49.696;10.808;2022-07-31T04:28:41;28.53;27.30;29.73;;
64077;Laerm;51039;49.696;10.808;2022-07-31T04:31:06;28.53;27.20;29.68;;
64077;Laerm;51039;49.696;10.808;2022-07-31T04:33:31;28.53;27.22;29.78;;
64077;Laerm;51039;49.696;10.808;2022-07-31T04:35:57;28.54;27.48;29.67;;
64077;Laerm;51039;49.696;10.808;2022-07-31T04:38:22;28.54;27.30;29.67;;
64077;Laerm;51039;49.696;10.808;2022-07-31T04:40:48;28.58;27.44;29.66;;
64077;Laerm;51039;49.696;10.808;2022-07-31T04:43:14;28.61;27.51;29.88;;
64077;Laerm;51039;49.696;10.808;2022-07-31T04:45:41;28.66;27.46;29.75;;
64077;Laerm;51039;49.696;10.808;2022-07-31T04:48:07;28.71;27.55;29.80;;
64077;Laerm;51039;49.696;10.808;2022-07-31T04:50:32;28.79;27.69;29.88;;
64077;Laerm;51039;49.696;10.808;2022-07-31T04:52:57;28.89;27.76;29.98;;
64077;Laerm;51039;49.696;10.808;2022-07-31T04:55:23;29.03;27.92;30.15;;
64077;Laerm;51039;49.696;10.808;2022-07-31T04:57:48;29.22;27.81;30.36;;
64077;Laerm;51039;49.696;10.808;2022-07-31T05:00:14;29.49;28.22;30.57;;
64077;Laerm;51039;49.696;10.808;2022-07-31T05:02:39;29.84;28.54;31.04;;
64077;Laerm;51039;49.696;10.808;2022-07-31T05:05:05;30.14;28.99;31.45;;
64077;Laerm;51039;49.696;10.808;2022-07-31T05:07:30;30.48;29.28;31.89;;
64077;Laerm;51039;49.696;10.808;2022-07-31T05:09:56;31.03;29.55;32.27;;
64077;Laerm;51039;49.696;10.808;2022-07-31T05:12:22;31.74;30.35;32.91;;
64077;Laerm;51039;49.696;10.808;2022-07-31T05:14:48;32.54;30.67;33.83;;
64077;Laerm;51039;49.696;10.808;2022-07-31T05:17:13;32.97;31.62;34.22;;
64077;Laerm;51039;49.696;10.808;2022-07-31T05:19:38;33.19;31.77;34.48;;
64077;Laerm;51039;49.696;10.808;2022-07-31T05:22:03;33.30;31.82;34.49;;
64077;Laerm;51039;49.696;10.808;2022-07-31T05:24:29;33.34;31.91;34.52;;
64077;Laerm;51039;49.696;10.808;2022-07-31T05:26:55;33.40;32.15;34.66;;
64077;Laerm;51039;49.696;10.808;2022-07-31T05:29:20;33.45;32.23;34.99;;
64077;Laerm;51039;49.696;10.808;2022-07-31T05:31:45;33.49;32.13;34.77;;
64077;Laerm;51039;49.696;10.808;2022-07-31T05:34:11;33.65;32.07;34.80;;
64077;Laerm;51039;49.696;10.808;2022-07-31T05:36:36;33.93;32.62;35.01;;
64077;Laerm;51039;49.696;10.808;2022-07-31T05:39:01;34.06;32.85;35.18;;
64077;Laerm;51039;49.696;10.808;2022-07-31T05:41:26;34.22;32.93;35.55;;
64077;Laerm;51039;49.696;10.808;2022-07-31T05:43:53;34.39;33.14;35.60;;
64077;Laerm;51039;49.696;10.808;2022-07-31T05:46:19;34.36;32.97;35.57;;
64077;Laerm;51039;49.696;10.808;2022-07-31T05:48:44;34.96;33.37;36.46;;
64077;Laerm;51039;49.696;10.808;2022-07-31T05:51:11;35.57;34.15;36.76;;
64077;Laerm;51039;49.696;10.808;2022-07-31T05:53:37;36.05;34.81;37.56;;
64077;Laerm;51039;49.696;10.808;2022-07-31T05:56:03;36.35;35.15;37.53;;
64077;Laerm;51039;49.696;10.808;2022-07-31T05:58:29;36.49;35.23;37.85;;
64077;Laerm;51039;49.696;10.808;2022-07-31T06:00:54;36.74;35.35;37.92;;
64077;Laerm;51039;49.696;10.808;2022-07-31T06:03:24;36.80;35.44;37.98;;
64077;Laerm;51039;49.696;10.808;2022-07-31T06:05:52;36.75;35.56;38.08;;
64077;Laerm;51039;49.696;10.808;2022-07-31T06:08:17;36.72;35.25;38.13;;
64077;Laerm;51039;49.696;10.808;2022-07-31T06:10:43;36.69;35.40;37.91;;
64077;Laerm;51039;49.696;10.808;2022-07-31T06:13:09;36.70;35.48;37.95;;
64077;Laerm;51039;49.696;10.808;2022-07-31T06:15:34;36.69;35.31;37.91;;
64077;Laerm;51039;49.696;10.808;2022-07-31T06:18:00;36.71;35.48;37.97;;
64077;Laerm;51039;49.696;10.808;2022-07-31T06:20:27;36.74;34.76;38.11;;
64077;Laerm;51039;49.696;10.808;2022-07-31T06:22:53;36.76;35.43;38.03;;
64077;Laerm;51039;49.696;10.808;2022-07-31T06:25:18;36.64;35.27;37.87;;
64077;Laerm;51039;49.696;10.808;2022-07-31T06:27:44;36.57;35.15;37.80;;
64077;Laerm;51039;49.696;10.808;2022-07-31T06:30:10;36.57;34.96;37.70;;
64077;Laerm;51039;49.696;10.808;2022-07-31T06:32:38;36.51;34.96;37.77;;
64077;Laerm;51039;49.696;10.808;2022-07-31T06:35:05;36.49;35.33;37.81;;
64077;Laerm;51039;49.696;10.808;2022-07-31T06:37:30;36.50;35.11;37.83;;
64077;Laerm;51039;49.696;10.808;2022-07-31T06:39:56;36.50;35.17;37.89;;
64077;Laerm;51039;49.696;10.808;2022-07-31T06:42:22;36.52;34.94;37.97;;
64077;Laerm;51039;49.696;10.808;2022-07-31T06:44:47;36.53;35.18;37.89;;
64077;Laerm;51039;49.696;10.808;2022-07-31T06:47:16;36.64;35.38;37.84;;
64077;Laerm;51039;49.696;10.808;2022-07-31T06:49:48;36.74;35.37;38.01;;
64077;Laerm;51039;49.696;10.808;2022-07-31T06:52:17;36.73;35.32;37.89;;
64077;Laerm;51039;49.696;10.808;2022-07-31T06:54:42;36.63;35.15;37.93;;
64077;Laerm;51039;49.696;10.808;2022-07-31T06:57:14;36.60;35.34;37.87;;
64077;Laerm;51039;49.696;10.808;2022-07-31T06:59:43;36.56;35.17;38.52;;
64077;Laerm;51039;49.696;10.808;2022-07-31T07:02:08;36.53;35.16;37.91;;
64077;Laerm;51039;49.696;10.808;2022-07-31T07:04:33;36.53;35.02;37.94;;
64077;Laerm;51039;49.696;10.808;2022-07-31T07:07:01;36.46;35.14;37.75;;
64077;Laerm;51039;49.696;10.808;2022-07-31T07:09:27;36.43;35.15;38.00;;
64077;Laerm;51039;49.696;10.808;2022-07-31T07:11:55;36.42;34.89;37.72;;
64077;Laerm;51039;49.696;10.808;2022-07-31T07:14:20;36.41;35.17;37.59;;
64077;Laerm;51039;49.696;10.808;2022-07-31T07:16:46;36.30;35.00;37.55;;
64077;Laerm;51039;49.696;10.808;2022-07-31T07:19:11;36.25;34.81;37.60;;
64077;Laerm;51039;49.696;10.808;2022-07-31T07:21:36;36.21;34.75;37.57;;
64077;Laerm;51039;49.696;10.808;2022-07-31T07:24:05;36.18;34.97;37.35;;
64077;Laerm;51039;49.696;10.808;2022-07-31T07:26:42;36.05;34.45;37.49;;
64077;Laerm;51039;49.696;10.808;2022-07-31T07:29:20;35.85;34.40;37.40;;
64077;Laerm;51039;49.696;10.808;2022-07-31T07:31:48;35.74;34.31;36.93;;
64077;Laerm;51039;49.696;10.808;2022-07-31T07:34:16;35.70;34.41;37.29;;
64077;Laerm;51039;49.696;10.808;2022-07-31T07:36:41;35.64;34.33;37.04;;
64077;Laerm;51039;49.696;10.808;2022-07-31T07:39:07;35.68;34.26;36.78;;
64077;Laerm;51039;49.696;10.808;2022-07-31T07:41:33;35.56;34.16;36.90;;
64077;Laerm;51039;49.696;10.808;2022-07-31T07:43:59;35.50;34.22;36.89;;
64077;Laerm;51039;49.696;10.808;2022-07-31T07:46:24;35.49;33.97;36.84;;
64077;Laerm;51039;49.696;10.808;2022-07-31T07:48:49;35.50;34.11;36.71;;
64077;Laerm;51039;49.696;10.808;2022-07-31T07:51:15;35.37;34.10;36.71;;
64077;Laerm;51039;49.696;10.808;2022-07-31T07:53:41;35.30;33.89;36.56;;
64077;Laerm;51039;49.696;10.808;2022-07-31T07:56:06;35.18;33.66;36.57;;
64077;Laerm;51039;49.696;10.808;2022-07-31T07:58:31;35.25;33.93;36.58;;
64077;Laerm;51039;49.696;10.808;2022-07-31T08:00:57;35.28;34.16;36.65;;
64077;Laerm;51039;49.696;10.808;2022-07-31T08:03:22;35.25;33.85;36.49;;
64077;Laerm;51039;49.696;10.808;2022-07-31T08:05:47;35.25;33.75;36.60;;
64077;Laerm;51039;49.696;10.808;2022-07-31T08:08:12;35.28;33.89;36.53;;
64077;Laerm;51039;49.696;10.808;2022-07-31T08:10:38;35.31;33.80;36.52;;
64077;Laerm;51039;49.696;10.808;2022-07-31T08:13:04;35.31;33.92;36.79;;
64077;Laerm;51039;49.696;10.808;2022-07-31T08:15:29;35.31;33.74;36.51;;
64077;Laerm;51039;49.696;10.808;2022-07-31T08:17:56;35.33;33.88;36.88;;
64077;Laerm;51039;49.696;10.808;2022-07-31T08:20:22;35.30;33.84;36.55;;
64077;Laerm;51039;49.696;10.808;2022-07-31T08:22:47;35.32;33.92;36.92;;
64077;Laerm;51039;49.696;10.808;2022-07-31T08:25:12;35.38;33.87;36.64;;
64077;Laerm;51039;49.696;10.808;2022-07-31T08:27:37;35.32;34.05;36.64;;
64077;Laerm;51039;49.696;10.808;2022-07-31T08:30:03;35.29;34.00;36.75;;
64077;Laerm;51039;49.696;10.808;2022-07-31T08:32:29;35.29;34.04;36.59;;
64077;Laerm;51039;49.696;10.808;2022-07-31T08:34:54;35.24;33.78;36.60;;
64077;Laerm;51039;49.696;10.808;2022-07-31T08:37:20;35.14;33.89;36.35;;
64077;Laerm;51039;49.696;10.808;2022-07-31T08:39:47;35.04;33.55;36.30;;
64077;Laerm;51039;49.696;10.808;2022-07-31T08:42:12;35.05;33.51;36.46;;
64077;Laerm;51039;49.696;10.808;2022-07-31T08:44:39;35.01;33.51;36.31;;
64077;Laerm;51039;49.696;10.808;2022-07-31T08:47:06;35.01;33.74;36.21;;
64077;Laerm;51039;49.696;10.808;2022-07-31T08:49:39;34.94;33.66;36.35;;
64077;Laerm;51039;49.696;10.808;2022-07-31T08:52:08;34.89;33.38;36.50;;
64077;Laerm;51039;49.696;10.808;2022-07-31T08:54:34;34.84;33.14;36.04;;
64077;Laerm;51039;49.696;10.808;2022-07-31T08:57:00;34.77;33.43;36.08;;
64077;Laerm;51039;49.696;10.808;2022-07-31T08:59:26;34.72;33.33;36.10;;
64077;Laerm;51039;49.696;10.808;2022-07-31T09:01:51;34.69;33.27;36.08;;
64077;Laerm;51039;49.696;10.808;2022-07-31T09:04:21;34.74;33.36;36.12;;
64077;Laerm;51039;49.696;10.808;2022-07-31T09:06:46;34.69;33.07;35.98;;
64077;Laerm;51039;49.696;10.808;2022-07-31T09:09:11;34.73;33.25;36.06;;
64077;Laerm;51039;49.696;10.808;2022-07-31T09:11:47;34.60;33.26;35.93;;
64077;Laerm;51039;49.696;10.808;2022-07-31T09:14:13;34.57;33.12;35.93;;
64077;Laerm;51039;49.696;10.808;2022-07-31T09:16:45;34.67;33.41;35.90;;
64077;Laerm;51039;49.696;10.808;2022-07-31T09:19:11;34.69;33.41;36.04;;
64077;Laerm;51039;49.696;10.808;2022-07-31T09:21:44;34.81;33.32;36.15;;
64077;Laerm;51039;49.696;10.808;2022-07-31T09:24:12;34.84;33.30;36.25;;
64077;Laerm;51039;49.696;10.808;2022-07-31T09:26:38;34.82;33.39;36.15;;
64077;Laerm;51039;49.696;10.808;2022-07-31T09:29:05;34.69;33.01;36.07;;
64077;Laerm;51039;49.696;10.808;2022-07-31T09:31:35;34.69;33.38;36.01;;
64077;Laerm;51039;49.696;10.808;2022-07-31T09:34:01;34.65;33.19;35.97;;
64077;Laerm;51039;49.696;10.808;2022-07-31T09:36:27;34.55;33.33;36.06;;
64077;Laerm;51039;49.696;10.808;2022-07-31T09:38:52;34.44;32.57;37.28;;
64077;Laerm;51039;49.696;10.808;2022-07-31T09:41:21;34.41;33.13;35.81;;
64077;Laerm;51039;49.696;10.808;2022-07-31T09:43:58;34.29;32.90;35.57;;
64077;Laerm;51039;49.696;10.808;2022-07-31T09:46:44;34.16;32.86;35.55;;
64077;Laerm;51039;49.696;10.808;2022-07-31T09:49:14;34.24;32.86;35.50;;
64077;Laerm;51039;49.696;10.808;2022-07-31T09:51:45;34.34;33.10;35.67;;
64077;Laerm;51039;49.696;10.808;2022-07-31T09:54:22;34.27;32.86;35.58;;
64077;Laerm;51039;49.696;10.808;2022-07-31T09:56:48;34.19;32.63;35.62;;
64077;Laerm;51039;49.696;10.808;2022-07-31T09:59:14;34.03;32.55;35.57;;
64077;Laerm;51039;49.696;10.808;2022-07-31T10:01:45;33.95;32.58;35.23;;
64077;Laerm;51039;49.696;10.808;2022-07-31T10:04:22;34.06;32.59;35.45;;
64077;Laerm;51039;49.696;10.808;2022-07-31T10:06:49;33.87;32.47;35.10;;
64077;Laerm;51039;49.696;10.808;2022-07-31T10:09:18;33.72;32.26;35.32;;
64077;Laerm;51039;49.696;10.808;2022-07-31T10:11:53;33.70;32.30;34.94;;
64077;Laerm;51039;49.696;10.808;2022-07-31T10:14:27;33.68;32.36;34.98;;
64077;Laerm;51039;49.696;10.808;2022-07-31T10:16:59;33.70;32.42;35.09;;
64077;Laerm;51039;49.696;10.808;2022-07-31T10:19:26;33.59;32.11;34.80;;
64077;Laerm;51039;49.696;10.808;2022-07-31T10:21:56;33.60;32.05;34.94;;
64077;Laerm;51039;49.696;10.808;2022-07-31T10:24:30;33.68;32.31;34.91;;
64077;Laerm;51039;49.696;10.808;2022-07-31T10:27:07;33.75;32.54;35.09;;
64077;Laerm;51039;49.696;10.808;2022-07-31T10:29:35;33.76;32.35;35.03;;
64077;Laerm;51039;49.696;10.808;2022-07-31T10:32:07;33.74;32.30;35.15;;
64077;Laerm;51039;49.696;10.808;2022-07-31T10:34:42;33.73;32.27;35.04;;
64077;Laerm;51039;49.696;10.808;2022-07-31T10:37:12;33.94;32.30;35.34;;
64077;Laerm;51039;49.696;10.808;2022-07-31T10:40:04;34.03;32.49;35.32;;
64077;Laerm;51039;49.696;10.808;2022-07-31T10:43:01;34.06;32.65;35.21;;
64077;Laerm;51039;49.696;10.808;2022-07-31T10:45:51;33.88;32.47;35.18;;
64077;Laerm;51039;49.696;10.808;2022-07-31T10:48:18;33.66;32.23;34.97;;
64077;Laerm;51039;49.696;10.808;2022-07-31T10:50:44;33.61;32.33;35.01;;
64077;Laerm;51039;49.696;10.808;2022-07-31T10:53:15;33.50;32.10;34.74;;
64077;Laerm;51039;49.696;10.808;2022-07-31T10:55:42;33.46;31.97;34.69;;
64077;Laerm;51039;49.696;10.808;2022-07-31T11:00:37;33.44;31.84;34.88;;
64077;Laerm;51039;49.696;10.808;2022-07-31T11:03:19;33.42;31.92;34.73;;
64077;Laerm;51039;49.696;10.808;2022-07-31T11:05:56;33.36;32.12;34.72;;
64077;Laerm;51039;49.696;10.808;2022-07-31T11:08:22;33.41;31.89;34.72;;
64077;Laerm;51039;49.696;10.808;2022-07-31T11:10:52;33.47;32.19;34.60;;
64077;Laerm;51039;49.696;10.808;2022-07-31T11:13:19;33.44;32.05;34.87;;
64077;Laerm;51039;49.696;10.808;2022-07-31T11:15:45;33.38;32.13;34.61;;
64077;Laerm;51039;49.696;10.808;2022-07-31T11:18:17;33.44;31.95;34.73;;
64077;Laerm;51039;49.696;10.808;2022-07-31T11:20:43;33.45;32.13;34.80;;
64077;Laerm;51039;49.696;10.808;2022-07-31T11:23:14;33.38;32.10;34.58;;
64077;Laerm;51039;49.696;10.808;2022-07-31T11:25:41;33.36;31.92;34.93;;
64077;Laerm;51039;49.696;10.808;2022-07-31T11:28:18;33.41;32.13;34.76;;
64077;Laerm;51039;49.696;10.808;2022-07-31T11:30:56;33.36;31.52;34.74;;
64077;Laerm;51039;49.696;10.808;2022-07-31T11:36:18;33.34;32.02;34.62;;
64077;Laerm;51039;49.696;10.808;2022-07-31T11:38:52;33.38;31.82;34.64;;
64077;Laerm;51039;49.696;10.808;2022-07-31T11:41:18;33.36;31.90;34.75;;
64077;Laerm;51039;49.696;10.808;2022-07-31T11:43:47;33.32;31.85;34.65;;
64077;Laerm;51039;49.696;10.808;2022-07-31T11:46:22;33.30;31.77;34.58;;
64077;Laerm;51039;49.696;10.808;2022-07-31T11:48:51;33.30;31.97;34.57;;
64077;Laerm;51039;49.696;10.808;2022-07-31T11:51:17;33.43;32.01;34.65;;
64077;Laerm;51039;49.696;10.808;2022-07-31T11:53:43;33.49;32.29;34.72;;
64077;Laerm;51039;49.696;10.808;2022-07-31T11:56:09;33.52;32.09;35.03;;
64077;Laerm;51039;49.696;10.808;2022-07-31T11:58:34;33.52;31.83;34.85;;
64077;Laerm;51039;49.696;10.808;2022-07-31T12:01:02;33.45;32.22;34.82;;
64077;Laerm;51039;49.696;10.808;2022-07-31T12:03:36;33.43;31.93;34.75;;
64077;Laerm;51039;49.696;10.808;2022-07-31T12:06:03;33.46;32.05;34.80;;
64077;Laerm;51039;49.696;10.808;2022-07-31T12:08:30;33.37;32.10;34.68;;
64077;Laerm;51039;49.696;10.808;2022-07-31T12:10:57;33.35;31.87;34.72;;
64077;Laerm;51039;49.696;10.808;2022-07-31T12:13:44;33.33;31.79;34.54;;
64077;Laerm;51039;49.696;10.808;2022-07-31T12:16:09;33.35;31.84;34.60;;
64077;Laerm;51039;49.696;10.808;2022-07-31T12:18:53;33.44;32.05;34.70;;
64077;Laerm;51039;49.696;10.808;2022-07-31T12:21:31;33.45;32.16;34.80;;
64077;Laerm;51039;49.696;10.808;2022-07-31T12:23:57;33.40;31.49;34.79;;
64077;Laerm;51039;49.696;10.808;2022-07-31T12:26:32;33.40;32.02;34.69;;
64077;Laerm;51039;49.696;10.808;2022-07-31T12:29:04;33.43;31.91;34.80;;
64077;Laerm;51039;49.696;10.808;2022-07-31T12:31:30;33.46;32.08;34.67;;
64077;Laerm;51039;49.696;10.808;2022-07-31T12:33:56;33.49;31.79;34.66;;
64077;Laerm;51039;49.696;10.808;2022-07-31T12:36:22;33.48;32.22;34.73;;
64077;Laerm;51039;49.696;10.808;2022-07-31T12:38:59;33.49;31.51;34.86;;
64077;Laerm;51039;49.696;10.808;2022-07-31T12:41:25;33.49;32.07;34.82;;
64077;Laerm;51039;49.696;10.808;2022-07-31T12:43:50;33.50;31.99;34.68;;
64077;Laerm;51039;49.696;10.808;2022-07-31T12:46:15;33.48;32.22;34.80;;
64077;Laerm;51039;49.696;10.808;2022-07-31T12:48:41;33.51;32.16;34.92;;
64077;Laerm;51039;49.696;10.808;2022-07-31T12:51:06;33.53;32.23;34.89;;
64077;Laerm;51039;49.696;10.808;2022-07-31T12:53:31;33.50;32.25;34.82;;
64077;Laerm;51039;49.696;10.808;2022-07-31T12:55:56;33.45;32.16;34.97;;
64077;Laerm;51039;49.696;10.808;2022-07-31T12:58:22;33.57;31.91;34.72;;
64077;Laerm;51039;49.696;10.808;2022-07-31T13:00:48;33.54;32.15;34.77;;
64077;Laerm;51039;49.696;10.808;2022-07-31T13:03:13;33.48;31.69;35.04;;
64077;Laerm;51039;49.696;10.808;2022-07-31T13:05:39;33.44;32.20;34.72;;
64077;Laerm;51039;49.696;10.808;2022-07-31T13:08:04;33.45;32.07;35.01;;
64077;Laerm;51039;49.696;10.808;2022-07-31T13:10:31;33.46;31.85;34.69;;
64077;Laerm;51039;49.696;10.808;2022-07-31T13:12:59;33.47;32.07;34.65;;
64077;Laerm;51039;49.696;10.808;2022-07-31T13:15:24;33.46;32.23;34.69;;
64077;Laerm;51039;49.696;10.808;2022-07-31T13:17:59;33.47;32.12;34.79;;
64077;Laerm;51039;49.696;10.808;2022-07-31T13:20:29;33.45;32.00;34.94;;
64077;Laerm;51039;49.696;10.808;2022-07-31T13:22:55;33.41;32.19;34.62;;
64077;Laerm;51039;49.696;10.808;2022-07-31T13:25:22;33.36;31.73;34.69;;
64077;Laerm;51039;49.696;10.808;2022-07-31T13:27:47;33.42;32.05;34.87;;
64077;Laerm;51039;49.696;10.808;2022-07-31T13:30:12;33.39;31.91;34.55;;
64077;Laerm;51039;49.696;10.808;2022-07-31T13:32:38;33.39;32.06;34.68;;
64077;Laerm;51039;49.696;10.808;2022-07-31T13:35:04;33.37;32.00;34.60;;
64077;Laerm;51039;49.696;10.808;2022-07-31T13:37:29;33.43;32.15;34.79;;
64077;Laerm;51039;49.696;10.808;2022-07-31T13:39:54;33.46;32.11;34.88;;
64077;Laerm;51039;49.696;10.808;2022-07-31T13:42:19;33.45;31.74;34.64;;
64077;Laerm;51039;49.696;10.808;2022-07-31T13:44:45;33.40;32.16;34.54;;
64077;Laerm;51039;49.696;10.808;2022-07-31T13:47:10;33.42;31.96;34.84;;